createdAt,value
2023-05-30T00:01:37.283Z,51.51
2023-05-30T00:04:11.804Z,51.48
2023-05-30T00:06:44.896Z,51.95
2023-05-30T00:09:17.402Z,51.58
2023-05-30T00:11:50.632Z,52.12
2023-05-30T00:14:24.376Z,52.40
2023-05-30T00:16:57.806Z,52.76
2023-05-30T00:19:32.422Z,52.45
2023-05-30T00:22:05.527Z,52.77
2023-05-30T00:24:38.175Z,53.43
2023-05-30T00:27:11.945Z,53.28
2023-05-30T00:29:46.384Z,53.38
2023-05-30T00:32:18.982Z,54.00
2023-05-30T00:34:51.575Z,53.70
2023-05-30T00:37:24.132Z,54.20
2023-05-30T00:39:56.603Z,54.39
2023-05-30T00:42:29.252Z,54.23
2023-05-30T00:45:01.746Z,54.35
2023-05-30T00:47:34.784Z,54.55
2023-05-30T00:50:08.748Z,54.37
2023-05-30T00:52:41.419Z,55.39
2023-05-30T00:55:15.022Z,55.90
2023-05-30T00:57:48.279Z,55.85
2023-05-30T01:00:21.234Z,55.56
2023-05-30T01:02:58.487Z,55.52
2023-05-30T01:05:32.363Z,55.61
2023-05-30T01:08:05.043Z,55.73
2023-05-30T01:10:38.624Z,56.32
2023-05-30T01:13:23.374Z,56.58
2023-05-30T01:16:04.116Z,56.67
2023-05-30T01:18:45.075Z,57.11
2023-05-30T01:21:20.357Z,56.92
2023-05-30T01:24:20.286Z,56.60
2023-05-30T01:27:05.571Z,57.06
2023-05-30T01:29:40.608Z,56.89
2023-05-30T01:32:13.252Z,57.59
2023-05-30T01:34:45.986Z,57.33
2023-05-30T01:37:18.490Z,57.53
2023-05-30T01:39:51.171Z,57.89
2023-05-30T01:42:24.904Z,57.85
2023-05-30T01:45:12.212Z,58.35
2023-05-30T01:48:00.081Z,58.16
2023-05-30T01:50:38.599Z,58.24
2023-05-30T01:53:15.420Z,58.07
2023-05-30T01:55:52.022Z,58.02
2023-05-30T01:58:25.136Z,58.24
2023-05-30T02:00:59.705Z,58.21
2023-05-30T02:03:32.511Z,58.45
2023-05-30T02:06:05.345Z,58.44
2023-05-30T02:08:37.903Z,59.04
2023-05-30T02:11:11.462Z,59.12
2023-05-30T02:13:45.529Z,58.54
2023-05-30T02:16:19.574Z,58.69
2023-05-30T02:18:53.789Z,58.77
2023-05-30T02:21:26.373Z,59.34
2023-05-30T02:23:58.891Z,59.53
2023-05-30T02:26:31.326Z,59.04
2023-05-30T02:29:03.941Z,59.40
2023-05-30T02:31:36.438Z,59.23
2023-05-30T02:34:08.948Z,60.04
2023-05-30T02:36:41.365Z,59.31
2023-05-30T02:39:13.918Z,59.66
2023-05-30T02:41:46.489Z,59.75
2023-05-30T02:44:18.980Z,59.90
2023-05-30T02:46:51.868Z,59.62
2023-05-30T02:49:24.299Z,59.70
2023-05-30T02:51:56.763Z,59.67
2023-05-30T02:54:29.318Z,59.79
2023-05-30T02:57:02.878Z,59.82
2023-05-30T02:59:35.418Z,60.29
2023-05-30T03:02:07.919Z,60.06
2023-05-30T03:04:46.603Z,60.40
2023-05-30T03:07:19.373Z,60.50
2023-05-30T03:09:51.909Z,60.45
2023-05-30T03:12:24.438Z,60.38
2023-05-30T03:14:57.090Z,60.24
2023-05-30T03:17:29.516Z,60.35
2023-05-30T03:20:02.307Z,60.07
2023-05-30T03:22:35.753Z,60.09
2023-05-30T03:25:09.345Z,60.03
2023-05-30T03:27:42.498Z,60.04
2023-05-30T03:30:15.831Z,59.96
2023-05-30T03:32:49.737Z,59.84
2023-05-30T03:35:22.334Z,59.48
2023-05-30T03:37:54.769Z,59.05
2023-05-30T03:40:27.220Z,59.36
2023-05-30T03:43:00.565Z,59.03
2023-05-30T03:45:33.283Z,58.77
2023-05-30T03:48:06.060Z,58.61
2023-05-30T03:50:38.659Z,58.52
2023-05-30T03:53:11.173Z,58.20
2023-05-30T03:55:43.715Z,58.04
2023-05-30T03:58:16.173Z,58.24
2023-05-30T04:00:48.641Z,58.03
2023-05-30T04:03:21.292Z,58.10
2023-05-30T04:05:54.396Z,58.12
2023-05-30T04:08:26.829Z,57.88
2023-05-30T04:10:59.499Z,57.31
2023-05-30T04:13:32.158Z,57.18
2023-05-30T04:16:04.807Z,57.34
2023-05-30T04:18:44.493Z,56.75
2023-05-30T04:21:17.040Z,56.90
2023-05-30T04:23:49.530Z,56.35
2023-05-30T04:26:26.425Z,56.75
2023-05-30T04:28:58.972Z,56.86
2023-05-30T04:31:31.556Z,56.36
2023-05-30T04:34:04.199Z,56.32
2023-05-30T04:36:38.029Z,56.28
2023-05-30T04:39:10.495Z,56.32
2023-05-30T04:41:42.983Z,56.01
2023-05-30T04:44:15.501Z,55.62
2023-05-30T04:46:47.979Z,55.14
2023-05-30T04:49:20.559Z,55.42
2023-05-30T04:51:53.007Z,55.02
2023-05-30T04:54:28.283Z,54.57
2023-05-30T04:57:00.690Z,54.65
2023-05-30T04:59:33.246Z,54.50
2023-05-30T05:02:06.141Z,54.16
2023-05-30T05:04:38.968Z,54.62
2023-05-30T05:07:11.709Z,54.40
2023-05-30T05:09:44.325Z,54.05
2023-05-30T05:12:17.027Z,53.99
2023-05-30T05:14:51.354Z,53.87
2023-05-30T05:17:24.266Z,53.44
2023-05-30T05:19:58.132Z,53.73
2023-05-30T05:22:32.712Z,53.15
2023-05-30T05:25:05.982Z,53.18
2023-05-30T05:27:40.660Z,53.44
2023-05-30T05:30:13.727Z,53.47
2023-05-30T05:32:47.057Z,53.11
2023-05-30T05:35:19.828Z,52.87
2023-05-30T05:37:52.385Z,52.08
2023-05-30T05:40:25.095Z,52.49
2023-05-30T05:42:57.577Z,52.64
2023-05-30T05:45:30.179Z,52.39
2023-05-30T05:48:02.893Z,52.05
2023-05-30T05:50:35.673Z,51.75
2023-05-30T05:53:08.165Z,52.08
2023-05-30T05:55:40.649Z,52.02
2023-05-30T05:58:13.886Z,51.33
2023-05-30T06:00:46.592Z,51.54
2023-05-30T06:03:19.364Z,51.52
2023-05-30T06:05:52.036Z,51.74
2023-05-30T06:08:24.488Z,51.31
2023-05-30T06:10:57.177Z,51.30
2023-05-30T06:13:29.744Z,51.21
2023-05-30T06:16:02.300Z,51.25
2023-05-30T06:18:34.837Z,50.78
2023-05-30T06:21:07.863Z,50.97
2023-05-30T06:23:40.468Z,50.62
2023-05-30T06:26:13.000Z,50.54
2023-05-30T06:28:50.220Z,50.00
2023-05-30T06:31:22.789Z,49.86
2023-05-30T06:33:55.426Z,49.52
2023-05-30T06:36:27.965Z,48.95
2023-05-30T06:39:00.511Z,48.95
2023-05-30T06:41:35.782Z,49.32
2023-05-30T06:44:08.250Z,48.95
2023-05-30T06:46:40.898Z,48.58
2023-05-30T06:49:13.386Z,48.31
2023-05-30T06:51:45.952Z,47.74
2023-05-30T06:54:18.408Z,47.14
2023-05-30T06:56:51.767Z,46.96
2023-05-30T06:59:24.183Z,47.49
2023-05-30T07:01:57.084Z,46.84
2023-05-30T07:04:29.752Z,47.17
2023-05-30T07:07:02.315Z,46.64
2023-05-30T07:09:34.969Z,46.21
2023-05-30T07:12:07.978Z,45.44
2023-05-30T07:14:41.060Z,45.23
2023-05-30T07:17:13.557Z,46.24
2023-05-30T07:19:46.418Z,45.51
2023-05-30T07:22:19.115Z,45.16
2023-05-30T07:24:51.588Z,45.72
2023-05-30T07:27:24.453Z,45.58
2023-05-30T07:29:56.904Z,45.15
2023-05-30T07:32:29.540Z,44.99
2023-05-30T07:35:02.075Z,44.86
2023-05-30T07:37:37.924Z,44.18
2023-05-30T07:40:10.704Z,43.79
2023-05-30T07:42:43.133Z,43.61
2023-05-30T07:45:15.970Z,43.83
2023-05-30T07:47:48.522Z,44.23
2023-05-30T07:50:21.062Z,44.93
2023-05-30T07:52:53.535Z,45.18
2023-05-30T07:55:27.363Z,45.59
2023-05-30T07:57:59.925Z,45.16
2023-05-30T08:00:32.418Z,45.44
2023-05-30T08:03:04.991Z,44.98
2023-05-30T08:05:37.510Z,44.55
2023-05-30T08:08:09.981Z,44.19
2023-05-30T08:10:42.429Z,44.23
2023-05-30T08:13:15.612Z,43.22
2023-05-30T08:15:48.133Z,42.93
2023-05-30T08:18:22.197Z,42.55
2023-05-30T08:20:56.018Z,42.21
2023-05-30T08:23:28.767Z,42.09
2023-05-30T08:26:01.608Z,41.85
2023-05-30T08:28:34.465Z,42.75
2023-05-30T08:31:07.154Z,42.50
2023-05-30T08:33:39.767Z,42.95
2023-05-30T08:36:12.243Z,43.48
2023-05-30T08:38:44.712Z,43.58
2023-05-30T08:41:17.197Z,43.12
2023-05-30T08:43:50.826Z,42.82
2023-05-30T08:46:24.505Z,43.02
2023-05-30T08:48:57.189Z,43.03
2023-05-30T08:51:31.401Z,42.80
2023-05-30T08:54:06.213Z,42.61
2023-05-30T08:56:43.675Z,43.27
2023-05-30T08:59:20.220Z,43.18
2023-05-30T09:01:55.419Z,43.28
2023-05-30T09:04:28.601Z,43.56
2023-05-30T09:07:04.466Z,42.89
2023-05-30T09:09:37.210Z,42.65
2023-05-30T09:12:12.891Z,42.61
2023-05-30T09:14:45.498Z,43.05
2023-05-30T09:17:19.224Z,42.72
2023-05-30T09:19:51.705Z,42.98
2023-05-30T09:22:26.116Z,42.17
2023-05-30T09:25:06.769Z,41.62
2023-05-30T09:27:39.455Z,42.03
2023-05-30T09:30:12.850Z,41.19
2023-05-30T09:33:04.491Z,41.13
2023-05-30T09:35:37.407Z,41.09
2023-05-30T09:38:09.848Z,40.96
2023-05-30T09:40:42.602Z,41.28
2023-05-30T09:43:16.246Z,41.44
2023-05-30T09:45:50.014Z,40.95
2023-05-30T09:48:22.609Z,40.81
2023-05-30T09:50:58.376Z,40.19
2023-05-30T09:53:33.580Z,40.08
2023-05-30T09:56:08.826Z,39.59
2023-05-30T09:58:41.714Z,39.87
2023-05-30T10:01:33.124Z,39.71
2023-05-30T10:04:15.578Z,39.04
2023-05-30T10:06:51.146Z,39.02
2023-05-30T10:09:25.003Z,38.79
2023-05-30T10:11:58.129Z,39.18
2023-05-30T10:14:30.734Z,39.44
2023-05-30T10:17:08.502Z,38.95
2023-05-30T10:19:47.435Z,38.33
2023-05-30T10:22:22.091Z,38.12
2023-05-30T10:24:56.967Z,37.76
2023-05-30T10:27:33.924Z,37.21
2023-05-30T10:30:08.359Z,37.78
2023-05-30T10:32:45.748Z,38.40
2023-05-30T10:35:20.488Z,38.28
2023-05-30T10:37:53.970Z,38.37
2023-05-30T10:40:37.785Z,38.01
2023-05-30T10:43:13.216Z,38.21
2023-05-30T10:46:11.389Z,38.20
2023-05-30T10:48:54.749Z,37.98
2023-05-30T10:51:27.300Z,38.21
2023-05-30T10:54:00.817Z,37.81
2023-05-30T10:56:38.902Z,37.54
2023-05-30T10:59:16.086Z,37.00
2023-05-30T11:02:05.805Z,37.52
2023-05-30T11:04:46.586Z,37.74
2023-05-30T11:07:19.472Z,37.34
2023-05-30T11:10:09.114Z,37.68
2023-05-30T11:12:49.342Z,37.37
2023-05-30T11:15:35.510Z,37.65
2023-05-30T11:18:19.186Z,37.50
2023-05-30T11:20:56.328Z,37.79
2023-05-30T11:23:30.519Z,37.08
2023-05-30T11:26:03.507Z,36.97
2023-05-30T11:28:37.125Z,37.22
2023-05-30T11:31:20.678Z,36.97
2023-05-30T11:33:54.333Z,36.36
2023-05-30T11:36:26.954Z,36.42
2023-05-30T11:39:00.068Z,37.31
2023-05-30T11:41:32.626Z,36.62
2023-05-30T11:44:05.563Z,35.75
2023-05-30T11:46:38.239Z,35.29
2023-05-30T11:49:10.833Z,35.79
2023-05-30T11:51:43.642Z,36.11
2023-05-30T11:54:16.322Z,36.04
2023-05-30T11:56:52.847Z,36.10
2023-05-30T11:59:27.717Z,36.16
2023-05-30T12:02:01.499Z,36.48
2023-05-30T12:04:36.204Z,35.02
2023-05-30T12:07:10.041Z,34.87
2023-05-30T12:09:42.869Z,34.90
2023-05-30T12:12:16.166Z,34.69
2023-05-30T12:14:51.494Z,34.28
2023-05-30T12:17:25.418Z,34.09
2023-05-30T12:20:00.690Z,33.96
2023-05-30T12:22:33.390Z,33.77
2023-05-30T12:25:10.200Z,33.49
2023-05-30T12:27:44.543Z,33.53
2023-05-30T12:30:19.154Z,33.93
2023-05-30T12:32:51.718Z,33.60
2023-05-30T12:35:27.764Z,33.91
2023-05-30T12:38:01.372Z,33.81
2023-05-30T12:40:35.303Z,34.67
2023-05-30T12:43:07.938Z,34.33
2023-05-30T12:45:44.302Z,33.79
2023-05-30T12:48:16.883Z,33.62
2023-05-30T12:50:49.678Z,33.26
2023-05-30T12:53:22.092Z,33.23
2023-05-30T12:55:54.735Z,32.99
2023-05-30T12:58:27.218Z,33.52
2023-05-30T13:01:00.259Z,33.27
2023-05-30T13:03:32.979Z,32.80
2023-05-30T13:06:07.126Z,33.18
2023-05-30T13:08:39.615Z,33.00
2023-05-30T13:11:12.214Z,32.56
2023-05-30T13:13:44.705Z,32.51
2023-05-30T13:16:17.365Z,32.05
2023-05-30T13:18:49.843Z,32.65
2023-05-30T13:21:23.546Z,32.19
2023-05-30T13:23:56.531Z,31.76
2023-05-30T13:26:28.997Z,31.56
2023-05-30T13:29:07.706Z,31.59
2023-05-30T13:31:40.353Z,31.99
2023-05-30T13:34:13.329Z,31.58
2023-05-30T13:36:46.545Z,32.03
2023-05-30T13:39:19.409Z,31.55
2023-05-30T13:41:51.943Z,31.41
2023-05-30T13:44:24.463Z,31.88
2023-05-30T13:46:57.023Z,31.42
2023-05-30T13:49:34.180Z,31.00
2023-05-30T13:52:10.981Z,30.79
2023-05-30T13:54:43.508Z,30.79
2023-05-30T13:57:16.889Z,31.12
2023-05-30T13:59:49.366Z,31.05
2023-05-30T14:02:22.615Z,30.26
2023-05-30T14:04:58.296Z,30.21
2023-05-30T14:07:31.118Z,30.93
2023-05-30T14:10:04.456Z,30.74
2023-05-30T14:12:37.174Z,30.26
2023-05-30T14:15:10.129Z,29.88
2023-05-30T14:17:43.484Z,30.07
2023-05-30T14:20:16.299Z,29.96
2023-05-30T14:22:48.827Z,30.07
2023-05-30T14:25:21.348Z,29.94
2023-05-30T14:27:53.891Z,29.85
2023-05-30T14:30:26.826Z,29.90
2023-05-30T14:33:01.537Z,29.93
2023-05-30T14:35:35.603Z,29.56
2023-05-30T14:38:09.072Z,29.91
2023-05-30T14:40:43.266Z,32.66
2023-05-30T14:43:15.849Z,32.89
2023-05-30T14:45:48.532Z,32.91
2023-05-30T14:48:21.208Z,34.33
2023-05-30T14:50:53.663Z,33.84
2023-05-30T14:53:26.246Z,35.15
2023-05-30T14:55:59.214Z,35.68
2023-05-30T14:58:32.918Z,35.78
2023-05-30T15:01:24.680Z,34.92
2023-05-30T15:03:59.467Z,35.35
2023-05-30T15:06:32.259Z,35.24
2023-05-30T15:09:04.768Z,35.98
2023-05-30T15:11:37.277Z,36.71
2023-05-30T15:14:09.844Z,36.42
2023-05-30T15:16:42.500Z,36.10
2023-05-30T15:19:14.998Z,35.36
2023-05-30T15:21:47.515Z,35.18
2023-05-30T15:24:20.081Z,34.08
2023-05-30T15:26:52.610Z,35.35
2023-05-30T15:29:25.502Z,35.26
2023-05-30T15:31:58.184Z,35.18
2023-05-30T15:34:30.769Z,35.52
2023-05-30T15:37:03.765Z,36.11
2023-05-30T15:39:36.360Z,36.16
2023-05-30T15:42:09.051Z,35.45
2023-05-30T15:44:41.594Z,36.32
2023-05-30T15:47:14.166Z,36.56
2023-05-30T15:49:46.657Z,36.29
2023-05-30T15:52:19.152Z,36.01
2023-05-30T15:54:51.693Z,35.34
2023-05-30T15:57:25.278Z,35.59
2023-05-30T15:59:57.743Z,34.60
2023-05-30T16:02:30.690Z,35.18
2023-05-30T16:05:04.161Z,35.68
2023-05-30T16:07:38.081Z,35.23
2023-05-30T16:10:10.737Z,35.45
2023-05-30T16:12:43.211Z,35.13
2023-05-30T16:15:15.722Z,35.24
2023-05-30T16:17:48.881Z,36.11
2023-05-30T16:20:21.582Z,35.09
2023-05-30T16:22:54.248Z,34.21
2023-05-30T16:25:27.485Z,33.81
2023-05-30T16:27:59.983Z,32.96
2023-05-30T16:30:32.460Z,32.52
2023-05-30T16:33:05.250Z,32.05
2023-05-30T16:35:37.804Z,33.01
2023-05-30T16:38:10.852Z,33.01
2023-05-30T16:40:43.803Z,32.75
2023-05-30T16:43:16.499Z,33.13
2023-05-30T16:45:49.062Z,33.82
2023-05-30T16:48:21.572Z,33.27
2023-05-30T16:50:54.176Z,33.02
2023-05-30T16:53:26.801Z,33.56
2023-05-30T16:55:59.802Z,33.74
2023-05-30T16:58:32.328Z,33.02
2023-05-30T17:01:05.620Z,33.58
2023-05-30T17:03:38.269Z,34.37
2023-05-30T17:06:11.418Z,33.32
2023-05-30T17:08:43.936Z,33.56
2023-05-30T17:11:16.516Z,34.16
2023-05-30T17:13:49.049Z,34.36
2023-05-30T17:16:21.775Z,34.49
2023-05-30T17:18:54.350Z,34.86
2023-05-30T17:21:26.958Z,34.96
2023-05-30T17:24:02.702Z,34.93
2023-05-30T17:26:36.830Z,34.62
2023-05-30T17:29:09.433Z,34.03
2023-05-30T17:31:42.101Z,34.56
2023-05-30T17:34:14.591Z,33.30
2023-05-30T17:36:47.038Z,32.72
2023-05-30T17:39:19.611Z,33.29
2023-05-30T17:41:52.064Z,33.81
2023-05-30T17:44:24.507Z,33.71
2023-05-30T17:46:57.000Z,33.37
2023-05-30T17:49:29.940Z,34.13
2023-05-30T17:52:02.568Z,34.42
2023-05-30T17:54:35.082Z,34.80
2023-05-30T17:57:08.216Z,35.69
2023-05-30T17:59:40.738Z,35.03
2023-05-30T18:02:13.359Z,35.37
2023-05-30T18:04:45.858Z,36.36
2023-05-30T18:07:19.434Z,36.45
2023-05-30T18:09:54.668Z,38.01
2023-05-30T18:12:27.587Z,36.94
2023-05-30T18:15:00.065Z,36.85
2023-05-30T18:17:32.583Z,36.63
2023-05-30T18:20:06.764Z,35.95
2023-05-30T18:22:39.828Z,36.30
2023-05-30T18:25:15.072Z,36.23
2023-05-30T18:27:47.780Z,36.94
2023-05-30T18:30:20.400Z,36.24
2023-05-30T18:32:56.179Z,36.38
2023-05-30T18:35:29.013Z,36.40
2023-05-30T18:38:02.070Z,37.34
2023-05-30T18:40:34.706Z,37.31
2023-05-30T18:43:07.187Z,37.07
2023-05-30T18:45:39.746Z,37.55
2023-05-30T18:48:12.409Z,37.94
2023-05-30T18:50:45.820Z,38.58
2023-05-30T18:53:18.304Z,38.36
2023-05-30T18:55:50.995Z,38.93
2023-05-30T18:58:23.505Z,38.64
2023-05-30T19:00:56.070Z,39.42
2023-05-30T19:03:30.328Z,39.30
2023-05-30T19:06:05.253Z,38.87
2023-05-30T19:08:40.393Z,39.24
2023-05-30T19:11:16.255Z,38.75
2023-05-30T19:13:48.738Z,38.48
2023-05-30T19:16:21.371Z,39.81
2023-05-30T19:18:55.166Z,40.28
2023-05-30T19:21:30.190Z,41.58
2023-05-30T19:24:02.630Z,42.58
2023-05-30T19:26:35.323Z,42.32
2023-05-30T19:29:07.725Z,43.25
2023-05-30T19:31:40.648Z,43.35
2023-05-30T19:34:13.207Z,44.13
2023-05-30T19:36:45.769Z,43.96
2023-05-30T19:39:18.520Z,44.46
2023-05-30T19:41:51.062Z,44.34
2023-05-30T19:44:23.539Z,44.78
2023-05-30T19:46:56.336Z,45.27
2023-05-30T19:49:30.765Z,45.47
2023-05-30T19:52:03.691Z,45.61
2023-05-30T19:54:36.202Z,45.96
2023-05-30T19:57:08.767Z,46.35
2023-05-30T19:59:41.275Z,46.70
2023-05-30T20:02:13.765Z,46.67
2023-05-30T20:04:46.478Z,46.92
2023-05-30T20:07:18.980Z,46.87
2023-05-30T20:09:51.568Z,46.60
2023-05-30T20:12:24.220Z,46.70
2023-05-30T20:14:56.702Z,47.06
2023-05-30T20:17:29.439Z,47.09
2023-05-30T20:20:04.214Z,47.32
2023-05-30T20:22:36.764Z,47.44
2023-05-30T20:25:09.664Z,47.99
2023-05-30T20:27:42.179Z,48.05
2023-05-30T20:30:15.778Z,48.11
2023-05-30T20:32:48.322Z,48.45
2023-05-30T20:35:21.099Z,48.00
2023-05-30T20:37:53.616Z,48.64
2023-05-30T20:40:26.437Z,48.45
2023-05-30T20:42:58.910Z,48.80
2023-05-30T20:45:31.734Z,48.84
2023-05-30T20:48:04.385Z,48.71
2023-05-30T20:50:36.965Z,49.09
2023-05-30T20:53:09.461Z,49.06
2023-05-30T20:55:42.448Z,49.04
2023-05-30T20:58:18.012Z,49.01
2023-05-30T21:00:50.871Z,49.31
2023-05-30T21:03:23.532Z,49.07
2023-05-30T21:05:56.179Z,49.28
2023-05-30T21:08:28.691Z,49.41
2023-05-30T21:11:01.484Z,49.23
2023-05-30T21:13:34.191Z,49.52
2023-05-30T21:16:07.041Z,50.00
2023-05-30T21:18:39.756Z,49.52
2023-05-30T21:21:12.163Z,49.81
2023-05-30T21:23:44.670Z,49.97
2023-05-30T21:26:17.093Z,49.95
2023-05-30T21:28:49.565Z,49.83
2023-05-30T21:31:22.569Z,50.03
2023-05-30T21:33:55.726Z,50.92
2023-05-30T21:36:28.324Z,50.52
2023-05-30T21:39:00.878Z,50.79
2023-05-30T21:41:33.341Z,50.99
2023-05-30T21:44:06.429Z,50.90
2023-05-30T21:46:39.108Z,50.92
2023-05-30T21:49:11.914Z,51.17
2023-05-30T21:51:44.494Z,51.12
2023-05-30T21:54:40.606Z,51.11
2023-05-30T21:57:15.393Z,51.57
2023-05-30T21:59:47.946Z,51.15
2023-05-30T22:02:20.477Z,51.38
2023-05-30T22:04:52.926Z,51.88
2023-05-30T22:07:26.475Z,52.32
2023-05-30T22:09:58.994Z,51.84
2023-05-30T22:12:31.621Z,51.92
2023-05-30T22:15:05.458Z,51.84
2023-05-30T22:17:40.288Z,51.81
2023-05-30T22:20:13.771Z,52.21
2023-05-30T22:22:46.506Z,52.29
2023-05-30T22:25:18.944Z,52.48
2023-05-30T22:27:51.390Z,52.92
2023-05-30T22:30:23.952Z,52.59
2023-05-30T22:32:56.592Z,52.57
2023-05-30T22:35:30.102Z,53.05
2023-05-30T22:38:02.555Z,53.13
2023-05-30T22:40:35.040Z,52.96
2023-05-30T22:43:07.458Z,53.01
2023-05-30T22:45:39.968Z,53.21
2023-05-30T22:48:12.463Z,53.18
2023-05-30T22:50:44.972Z,53.54
2023-05-30T22:53:17.426Z,53.57
2023-05-30T22:55:49.967Z,53.29
2023-05-30T22:58:22.414Z,53.25
2023-05-30T23:00:54.909Z,54.03
2023-05-30T23:03:27.717Z,53.70
2023-05-30T23:06:00.525Z,54.03
2023-05-30T23:08:32.925Z,54.40
2023-05-30T23:11:05.543Z,54.76
2023-05-30T23:13:38.141Z,54.34
2023-05-30T23:16:10.798Z,54.43
2023-05-30T23:18:43.362Z,54.38
2023-05-30T23:21:15.960Z,54.55
2023-05-30T23:23:48.410Z,55.03
2023-05-30T23:26:21.312Z,54.75
2023-05-30T23:28:53.789Z,54.70
2023-05-30T23:31:26.926Z,55.29
2023-05-30T23:33:59.533Z,55.50
2023-05-30T23:36:32.037Z,55.35
2023-05-30T23:39:04.469Z,55.59
2023-05-30T23:41:37.076Z,55.67
2023-05-30T23:44:09.685Z,55.94
2023-05-30T23:46:42.203Z,55.92
2023-05-30T23:49:16.400Z,55.84
2023-05-30T23:51:48.902Z,56.11
2023-05-30T23:54:22.368Z,56.04
2023-05-30T23:56:54.879Z,56.25
2023-05-30T23:59:27.449Z,56.31
